Time;durP1;ratioP1;P1;durP2;ratioP2;P2;SDS_P1;SDS_P2;PMS_P1;PMS_P2;Temp;Humidity;BMP_temperature;BMP_pressure;BME280_temperature;BME280_humidity;BME280_pressure;Samples;Min_cycle;Max_cycle;Signal;HPM_P1;HPM_P2
2022/06/04 00:00:43;;;;;;;;;;;18.50;99.90;;;18.14;56.07;101733.03;4842951;29;19963;-66
2022/06/04 00:03:12;;;;;;;;;;;18.50;99.90;;;16.88;55.92;101572.38;4842936;29;19924;-66
2022/06/04 00:05:43;;;;;;;;;;;18.40;99.90;;;18.50;56.08;101818.00;4843032;29;19947;-66
2022/06/04 00:08:13;;;;;;;;;;;18.40;99.90;;;18.53;55.86;101813.44;4842813;29;19929;-66
2022/06/04 00:16:16;;;;;;;;;;;18.20;99.90;;;18.55;55.60;101838.41;4842766;29;19924;-66
2022/06/04 00:18:44;;;;;;;;;;;18.30;99.90;;;18.67;55.32;101835.47;4842671;29;20439;-66
2022/06/04 00:21:16;;;;;;;;;;;18.40;99.90;;;18.63;55.53;101847.19;4842711;29;19947;-66
2022/06/04 00:23:45;;;;;;;;;;;18.30;99.90;;;18.45;55.71;101827.91;4842605;29;19929;-66
2022/06/04 00:26:14;;;;;;;;;;;18.30;99.90;;;18.50;55.78;101845.69;4843085;29;20019;-66
2022/06/04 00:28:45;;;;;;;;;;;18.20;99.90;;;18.27;56.32;101825.59;4842817;29;19936;-66
2022/06/04 00:31:14;;;;;;;;;;;18.10;99.90;;;18.43;56.55;101841.34;4842599;29;19957;-66
2022/06/04 00:33:42;;;;;;;;;;;18.10;99.90;;;18.52;56.75;101840.28;4842579;29;19925;-66
2022/06/04 00:36:11;;;;;;;;;;;18.20;99.90;;;18.45;56.88;101844.00;4843488;29;20019;-66
2022/06/04 00:38:39;;;;;;;;;;;18.20;99.90;;;18.38;57.38;101853.94;4846472;29;19924;-66
2022/06/04 00:41:15;;;;;;;;;;;18.10;99.90;;;18.30;57.55;101831.78;4846767;29;20015;-66
2022/06/04 00:44:26;;;;;;;;;;;18.10;99.90;;;18.15;57.60;101828.53;4830151;29;20026;-66
2022/06/04 00:47:07;;;;;;;;;;;18.10;99.90;;;18.29;58.06;101851.41;4846064;29;19928;-66
2022/06/04 00:49:37;;;;;;;;;;;18.00;99.90;;;18.32;58.12;101848.69;4846352;29;19930;-66
2022/06/04 00:52:07;;;;;;;;;;;18.10;99.90;;;18.31;58.30;101852.28;4845944;29;19947;-66
2022/06/04 00:54:36;;;;;;;;;;;18.00;99.90;;;18.26;58.20;101837.22;4846035;29;19924;-66
2022/06/04 00:57:19;;;;;;;;;;;18.00;99.90;;;18.39;58.20;101855.69;4845943;29;20015;-66
2022/06/04 00:59:52;;;;;;;;;;;18.10;99.90;;;17.92;58.17;101796.88;4845917;29;19949;-66
2022/06/04 01:02:28;;;;;;;;;;;18.00;99.90;;;18.18;58.50;101848.09;4845727;29;19925;-66
2022/06/04 01:05:04;;;;;;;;;;;18.00;99.90;;;17.95;58.82;101856.56;4845896;29;20306;-66
2022/06/04 01:07:55;;;;;;;;;;;17.80;99.90;;;18.00;59.06;101848.47;4846359;29;19929;-66
2022/06/04 01:10:32;;;;;;;;;;;17.70;99.90;;;17.83;59.47;101850.56;4845737;29;20000;-66
2022/06/04 01:13:11;;;;;;;;;;;17.60;99.90;;;17.81;59.74;101837.19;4845983;29;19963;-66
2022/06/04 01:15:48;;;;;;;;;;;17.50;99.90;;;17.75;59.50;101858.72;4845699;29;19973;-65
2022/06/04 01:18:27;;;;;;;;;;;17.50;99.90;;;17.72;60.04;101855.22;4845623;29;19951;-66
2022/06/04 01:21:01;;;;;;;;;;;17.50;99.90;;;17.70;59.85;101857.94;4845778;29;19969;-66
2022/06/04 01:24:13;;;;;;;;;;;17.50;99.90;;;17.49;60.10;101871.69;4845748;29;20344;-66
2022/06/04 01:27:09;;;;;;;;;;;17.40;99.90;;;17.40;60.62;101861.09;4835944;29;20275;-65
2022/06/04 01:29:40;;;;;;;;;;;17.30;99.90;;;17.56;60.73;101859.06;4840183;29;20264;-66
2022/06/04 01:32:10;;;;;;;;;;;17.30;99.90;;;17.46;60.91;101854.78;4844345;29;19931;-66
2022/06/04 01:34:44;;;;;;;;;;;17.30;99.90;;;17.38;60.81;101854.88;4845554;29;19925;-66
2022/06/04 01:37:18;;;;;;;;;;;17.30;99.90;;;15.70;60.61;101549.41;4845401;29;20371;-66
2022/06/04 01:42:37;;;;;;;;;;;17.10;99.90;;;17.24;61.44;101870.28;4845241;29;19924;-66
2022/06/04 01:45:09;;;;;;;;;;;17.10;99.90;;;17.20;61.88;101879.25;4845386;29;19924;-66
2022/06/04 01:47:38;;;;;;;;;;;17.00;99.90;;;17.15;61.72;101892.69;4845614;29;19925;-66
2022/06/04 01:50:11;;;;;;;;;;;16.90;99.90;;;17.24;61.64;101898.81;4845315;29;19932;-66
2022/06/04 01:52:40;;;;;;;;;;;16.90;99.90;;;16.72;61.91;101851.47;4845265;29;20331;-66
2022/06/04 01:55:12;;;;;;;;;;;16.90;99.90;;;16.93;61.91;101896.59;4844952;29;19924;-66
2022/06/04 01:57:45;;;;;;;;;;;16.80;99.90;;;16.30;62.09;101747.81;4844983;29;19925;-66
2022/06/04 02:00:16;;;;;;;;;;;16.80;99.90;;;17.06;61.83;101862.53;4844890;29;20307;-66
2022/06/04 02:02:48;;;;;;;;;;;16.90;99.90;;;17.09;61.96;101891.91;4844715;29;19932;-66
2022/06/04 02:05:18;;;;;;;;;;;16.90;99.90;;;17.21;61.89;101882.84;4844864;29;20356;-66
2022/06/04 02:07:49;;;;;;;;;;;17.00;99.90;;;16.15;62.17;101721.34;4844654;29;19928;-66
2022/06/04 02:10:22;;;;;;;;;;;16.90;99.90;;;17.21;62.06;101870.31;4844704;29;19924;-66
2022/06/04 02:12:54;;;;;;;;;;;17.00;99.90;;;16.92;62.25;101889.47;4844568;29;19924;-65
2022/06/04 02:15:26;;;;;;;;;;;16.80;99.90;;;16.85;62.63;101829.00;4844834;29;19924;-65
2022/06/04 02:17:57;;;;;;;;;;;16.90;99.90;;;17.09;62.90;101878.56;4845285;29;19954;-65
2022/06/04 02:20:26;;;;;;;;;;;16.80;99.90;;;16.75;63.02;101830.03;4845324;29;19924;-65
2022/06/04 02:22:55;;;;;;;;;;;16.80;99.90;;;16.86;63.05;101872.66;4844994;29;19977;-65
2022/06/04 02:25:23;;;;;;;;;;;16.70;99.90;;;16.77;63.55;101868.31;4844813;29;19974;-65
2022/06/04 02:27:54;;;;;;;;;;;16.70;99.90;;;16.80;63.83;101868.25;4828131;29;19924;-65
2022/06/04 02:30:22;;;;;;;;;;;16.60;99.90;;;16.78;64.19;101880.75;4844735;29;19924;-65
2022/06/04 02:33:01;;;;;;;;;;;16.60;99.90;;;16.78;64.48;101901.28;4844288;29;19956;-65
2022/06/04 02:35:35;;;;;;;;;;;16.50;99.90;;;16.75;64.90;101907.53;4844295;29;19956;-65
2022/06/04 02:38:08;;;;;;;;;;;16.50;99.90;;;16.67;65.02;101889.81;4844251;29;19963;-60
2022/06/04 02:40:40;;;;;;;;;;;16.50;99.90;;;16.62;65.18;101902.38;4843060;29;19925;-60
2022/06/04 02:43:15;;;;;;;;;;;16.30;99.90;;;16.68;65.42;101907.63;4842975;29;19955;-60
2022/06/04 02:45:49;;;;;;;;;;;16.40;99.90;;;16.76;65.22;101868.34;4843181;29;20310;-60
2022/06/04 02:48:23;;;;;;;;;;;16.50;99.90;;;16.63;65.55;101848.91;4841752;29;20379;-60
2022/06/04 02:50:55;;;;;;;;;;;16.50;99.90;;;16.56;65.86;101852.56;4842849;29;19929;-60
2022/06/04 02:53:24;;;;;;;;;;;16.30;99.90;;;16.64;66.18;101863.16;4842977;29;19928;-60
2022/06/04 02:55:57;;;;;;;;;;;16.40;99.90;;;16.64;65.99;101869.38;4843218;29;19930;-60
2022/06/04 02:58:27;;;;;;;;;;;16.40;99.90;;;16.32;66.65;101847.50;4843106;29;20309;-59
2022/06/04 03:00:56;;;;;;;;;;;16.20;99.90;;;16.34;66.97;101852.84;4842947;29;20099;-59
2022/06/04 03:03:25;;;;;;;;;;;16.10;99.90;;;16.46;67.12;101866.00;4842608;29;19996;-59
2022/06/04 03:05:56;;;;;;;;;;;16.20;99.90;;;16.43;67.36;101850.03;4842476;29;19946;-59
2022/06/04 03:08:24;;;;;;;;;;;16.10;99.90;;;16.50;67.09;101851.75;4842662;29;20019;-58
2022/06/04 03:10:52;;;;;;;;;;;16.20;99.90;;;16.54;67.11;101856.16;4842404;29;19934;-59
2022/06/04 03:13:21;;;;;;;;;;;16.20;99.90;;;16.61;66.66;101861.41;4841244;29;20102;-59
2022/06/04 03:15:51;;;;;;;;;;;16.30;99.90;;;16.63;66.20;101864.94;4842259;29;19957;-59
2022/06/04 03:18:20;;;;;;;;;;;16.40;99.90;;;16.74;66.30;101870.16;4842275;29;19966;-59
2022/06/04 03:20:48;;;;;;;;;;;16.40;99.90;;;16.41;65.61;101862.53;4841435;29;20359;-59
2022/06/04 03:23:16;;;;;;;;;;;16.30;99.90;;;16.53;66.38;101865.09;4842196;29;19931;-59
2022/06/04 03:25:44;;;;;;;;;;;16.30;99.90;;;16.62;66.22;101856.94;4842737;29;19928;-59
2022/06/04 03:28:13;;;;;;;;;;;16.30;99.90;;;16.70;66.22;101857.72;4842459;29;19963;-59
2022/06/04 03:30:41;;;;;;;;;;;16.40;99.90;;;16.70;65.70;101845.25;4842363;29;19981;-59
2022/06/04 03:33:10;;;;;;;;;;;16.40;99.90;;;16.72;65.33;101847.91;4842430;29;19935;-59
2022/06/04 03:35:39;;;;;;;;;;;16.40;99.90;;;16.71;65.23;101844.34;4842109;29;20095;-59
2022/06/04 03:38:07;;;;;;;;;;;16.50;99.90;;;16.73;65.00;101839.84;4842003;29;20056;-59
2022/06/04 03:40:35;;;;;;;;;;;16.50;99.90;;;16.76;64.50;101845.16;4842150;29;19936;-59
2022/06/04 03:43:03;;;;;;;;;;;16.50;99.90;;;16.71;64.00;101847.00;4842023;29;19924;-59
2022/06/04 03:45:32;;;;;;;;;;;16.50;99.90;;;16.71;64.35;101847.00;4842295;29;20382;-59
2022/06/04 03:48:00;;;;;;;;;;;16.50;99.90;;;16.76;64.38;101852.31;4840997;29;20405;-59
2022/06/04 03:50:29;;;;;;;;;;;16.50;99.90;;;16.66;63.57;101848.88;4841991;29;19924;-59
2022/06/04 03:52:58;;;;;;;;;;;16.40;99.90;;;16.78;63.72;101847.81;4840907;29;19924;-59
2022/06/04 03:55:27;;;;;;;;;;;16.50;99.90;;;16.74;63.43;101832.75;4842249;29;19964;-59
2022/06/04 03:57:55;;;;;;;;;;;16.50;99.90;;;16.66;63.51;101851.56;4842015;29;19956;-59
2022/06/04 04:00:27;;;;;;;;;;;16.40;99.90;;;16.52;63.42;101849.94;4842119;29;20023;-59
2022/06/04 04:02:58;;;;;;;;;;;16.40;99.90;;;16.40;63.85;101836.72;4842515;29;19928;-59
2022/06/04 04:05:27;;;;;;;;;;;16.30;99.90;;;16.62;63.83;101868.53;4842031;29;19932;-59
2022/06/04 04:07:58;;;;;;;;;;;16.30;99.90;;;16.63;63.71;101856.91;4842081;29;19929;-59
2022/06/04 04:10:28;;;;;;;;;;;16.40;99.90;;;16.63;63.91;101840.88;4841151;29;19959;-59
2022/06/04 04:12:57;;;;;;;;;;;16.50;99.90;;;16.65;64.35;101860.44;4841745;29;20458;-59
2022/06/04 04:15:25;;;;;;;;;;;16.40;99.90;;;16.73;64.27;101861.25;4841803;29;19929;-59
2022/06/04 04:17:53;;;;;;;;;;;16.40;99.90;;;16.81;64.12;101859.34;4842036;29;20372;-59
2022/06/04 04:20:24;;;;;;;;;;;16.60;99.90;;;16.82;63.73;101858.44;4841845;29;20019;-58
2022/06/04 04:22:52;;;;;;;;;;;16.60;99.90;;;16.84;63.31;101861.97;4841868;29;20436;-59
2022/06/04 04:25:24;;;;;;;;;;;16.60;99.90;;;16.74;63.41;101856.78;4841788;29;19931;-59
2022/06/04 04:27:53;;;;;;;;;;;16.50;99.90;;;16.66;63.65;101848.00;4840561;29;20022;-59
2022/06/04 04:30:23;;;;;;;;;;;16.50;99.90;;;16.66;64.20;101862.25;4841790;29;20024;-59
2022/06/04 04:32:53;;;;;;;;;;;16.40;99.90;;;16.77;64.34;101870.97;4841542;29;19964;-59
2022/06/04 04:35:22;;;;;;;;;;;16.50;99.90;;;16.72;64.42;101871.94;4841656;29;20407;-59
2022/06/04 04:37:51;;;;;;;;;;;16.50;99.90;;;16.57;64.83;101859.66;4841446;29;19988;-59
2022/06/04 04:40:22;;;;;;;;;;;16.40;99.90;;;16.69;65.26;101862.19;4841647;29;19970;-59
2022/06/04 04:42:51;;;;;;;;;;;16.40;99.90;;;16.70;65.69;101863.97;4841433;29;20347;-59
2022/06/04 04:45:21;;;;;;;;;;;16.40;99.90;;;16.79;66.10;101866.50;4841412;29;19924;-59
2022/06/04 04:47:49;;;;;;;;;;;16.50;99.90;;;16.88;66.33;101866.34;4841580;29;20425;-59
2022/06/04 04:50:19;;;;;;;;;;;16.60;99.90;;;16.72;66.65;101831.88;4841283;29;19964;-59
2022/06/04 04:52:48;;;;;;;;;;;16.70;99.90;;;16.97;67.19;101860.91;4841301;29;20034;-59
2022/06/04 04:55:16;;;;;;;;;;;16.70;99.90;;;17.00;67.56;101865.28;4841123;29;19938;-59
2022/06/04 04:57:46;;;;;;;;;;;16.80;99.90;;;17.01;67.44;101872.44;4841231;29;20031;-59
2022/06/04 05:00:16;;;;;;;;;;;16.80;99.90;;;16.97;68.16;101865.34;4841166;29;19932;-59
2022/06/04 05:02:44;;;;;;;;;;;16.80;99.90;;;17.00;68.48;101867.97;4841461;29;19924;-59
2022/06/04 05:05:13;;;;;;;;;;;16.70;99.90;;;17.00;68.53;101863.50;4840094;29;19924;-59
2022/06/04 05:07:42;;;;;;;;;;;16.80;99.90;;;16.97;68.26;101858.22;4841295;29;20022;-59
2022/06/04 05:10:11;;;;;;;;;;;16.80;99.90;;;16.98;68.58;101864.44;4841050;29;20286;-59
2022/06/04 05:12:39;;;;;;;;;;;16.70;99.90;;;17.04;68.62;101867.03;4841656;29;20032;-59
2022/06/04 05:15:10;;;;;;;;;;;16.80;99.90;;;17.04;68.45;101859.88;4840984;29;20056;-59
2022/06/04 05:17:38;;;;;;;;;;;16.80;99.90;;;17.07;68.41;101862.50;4841247;29;20015;-59
2022/06/04 05:20:07;;;;;;;;;;;16.80;99.90;;;17.11;68.25;101858.88;4840977;29;20018;-59
2022/06/04 05:22:35;;;;;;;;;;;16.80;99.90;;;17.02;67.86;101872.41;4842433;29;20026;-60
2022/06/04 05:25:03;;;;;;;;;;;16.80;99.90;;;17.08;67.95;101882.13;4844325;29;19972;-59
2022/06/04 05:27:31;;;;;;;;;;;16.80;99.90;;;17.02;68.07;101890.22;4844801;29;19939;-59
2022/06/04 05:29:59;;;;;;;;;;;16.80;99.90;;;17.08;67.69;101885.69;4844190;29;19924;-59
2022/06/04 05:32:29;;;;;;;;;;;16.80;99.90;;;16.99;67.48;101871.56;4844359;29;20030;-59
2022/06/04 05:34:57;;;;;;;;;;;16.70;99.90;;;16.95;67.81;101877.84;4844119;29;20436;-60
2022/06/04 05:37:25;;;;;;;;;;;16.70;99.90;;;16.99;67.50;101877.78;4844285;29;20358;-59
2022/06/04 05:39:59;;;;;;;;;;;16.70;99.90;;;16.91;66.65;101887.72;4844333;29;19924;-59
2022/06/04 05:42:27;;;;;;;;;;;16.60;99.90;;;16.69;67.34;101880.88;4844639;29;20011;-59
2022/06/04 05:44:55;;;;;;;;;;;16.50;99.90;;;16.83;67.24;101884.25;4844061;29;19932;-59
2022/06/04 05:47:23;;;;;;;;;;;16.50;99.90;;;16.80;67.05;101876.28;4843056;29;19931;-59
2022/06/04 05:49:53;;;;;;;;;;;16.60;99.90;;;16.73;67.60;101893.31;4843692;29;19959;-59
2022/06/04 05:52:21;;;;;;;;;;;16.50;99.90;;;16.84;67.77;101894.03;4843757;29;20005;-59
2022/06/04 05:54:49;;;;;;;;;;;16.50;99.90;;;16.82;67.33;101900.31;4843946;29;19924;-59
2022/06/04 05:57:17;;;;;;;;;;;16.60;99.90;;;16.87;67.05;101894.00;4843687;29;19928;-59
2022/06/04 05:59:46;;;;;;;;;;;16.60;99.90;;;17.02;67.11;101901.81;4844012;29;20020;-59
2022/06/04 06:02:14;;;;;;;;;;;16.70;99.90;;;17.03;66.98;101887.50;4843789;29;19944;-59
2022/06/04 06:04:42;;;;;;;;;;;16.70;99.90;;;16.73;67.36;101887.06;4843590;29;19956;-59
2022/06/04 06:07:11;;;;;;;;;;;16.50;99.90;;;16.81;67.31;101872.72;4843781;29;20289;-59
2022/06/04 06:09:39;;;;;;;;;;;16.60;99.90;;;16.94;67.12;101898.34;4843660;29;19932;-59
2022/06/04 06:12:08;;;;;;;;;;;16.60;99.90;;;16.96;67.14;101906.34;4843583;29;20291;-59
2022/06/04 06:14:36;;;;;;;;;;;16.70;99.90;;;16.77;67.35;101892.34;4843525;29;20004;-59
2022/06/04 06:17:05;;;;;;;;;;;16.60;99.90;;;16.88;67.61;101910.91;4843297;29;19980;-59
2022/06/04 06:19:33;;;;;;;;;;;16.60;99.90;;;16.86;67.43;101920.75;4843566;29;20335;-59
2022/06/04 06:22:01;;;;;;;;;;;16.60;99.90;;;16.79;67.95;101903.03;4843943;29;20015;-59
2022/06/04 06:24:31;;;;;;;;;;;16.60;99.90;;;16.80;68.07;101902.13;4843205;29;19962;-59
2022/06/04 06:27:00;;;;;;;;;;;16.60;99.90;;;16.71;68.03;101916.47;4843256;29;19924;-59
2022/06/04 06:29:31;;;;;;;;;;;16.50;99.90;;;16.77;68.61;101923.53;4843143;29;19924;-59
2022/06/04 06:32:00;;;;;;;;;;;16.50;99.90;;;16.65;68.62;101921.00;4843726;29;19963;-59
2022/06/04 06:34:28;;;;;;;;;;;16.50;99.90;;;16.85;68.79;101925.22;4842205;29;20035;-59
2022/06/04 06:36:57;;;;;;;;;;;16.50;99.90;;;16.90;68.37;101941.16;4842956;29;20008;-59
2022/06/04 06:39:25;;;;;;;;;;;16.60;99.90;;;16.87;68.13;101934.09;4842977;29;19925;-59
2022/06/04 06:41:55;;;;;;;;;;;16.70;99.90;;;16.95;68.20;101952.72;4843045;29;20399;-59
2022/06/04 06:44:37;;;;;;;;;;;16.70;99.90;;;16.95;68.27;101950.03;4843365;29;19974;-59
2022/06/04 06:47:07;;;;;;;;;;;16.70;99.90;;;16.95;68.24;101958.94;4842089;29;19966;-59
2022/06/04 06:49:36;;;;;;;;;;;16.70;99.90;;;16.86;68.57;101961.72;4843289;29;20018;-59
2022/06/04 06:52:12;;;;;;;;;;;16.60;99.90;;;16.86;68.93;101967.06;4843384;29;19967;-58
2022/06/04 06:54:40;;;;;;;;;;;16.60;99.90;;;17.15;68.57;101961.31;4843068;29;19924;-59
2022/06/04 06:57:11;;;;;;;;;;;16.80;99.90;;;17.17;68.22;101964.00;4843325;29;19943;-59
2022/06/04 06:59:43;;;;;;;;;;;16.90;99.90;;;17.09;67.88;101959.63;4843026;29;20381;-59
2022/06/04 07:02:12;;;;;;;;;;;16.90;99.90;;;17.00;68.39;101961.53;4843031;29;20019;-59
2022/06/04 07:04:41;;;;;;;;;;;16.80;99.90;;;16.99;69.11;101966.00;4841909;29;20379;-59
2022/06/04 07:07:09;;;;;;;;;;;16.70;99.90;;;17.17;68.47;101974.69;4841690;29;20304;-59
2022/06/04 07:09:39;;;;;;;;;;;16.80;99.90;;;16.64;68.00;101874.72;4842724;29;19925;-59
2022/06/04 07:12:10;;;;;;;;;;;16.90;99.90;;;17.30;67.82;101976.28;4842991;29;19928;-59
2022/06/04 07:14:40;;;;;;;;;;;17.00;99.90;;;17.26;67.67;101980.81;4842686;29;19935;-59
2022/06/04 07:17:08;;;;;;;;;;;17.00;99.90;;;17.13;67.83;101977.41;4843403;29;19968;-59
2022/06/04 07:19:36;;;;;;;;;;;16.90;99.90;;;17.36;67.92;101974.41;4843467;29;19924;-59
2022/06/04 07:22:05;;;;;;;;;;;17.10;99.90;;;17.50;67.63;101971.56;4842449;29;19925;-59
2022/06/04 07:24:33;;;;;;;;;;;17.20;99.90;;;17.56;67.39;101975.03;4842393;29;20011;-61
2022/06/04 07:27:01;;;;;;;;;;;17.20;99.90;;;17.60;67.26;101970.50;4842245;29;20023;-60
2022/06/04 07:29:31;;;;;;;;;;;17.30;99.90;;;17.69;67.33;101959.66;4842196;29;20015;-62
2022/06/04 07:31:59;;;;;;;;;;;17.40;99.90;;;17.64;66.93;101950.81;4842488;29;20290;-61
2022/06/04 07:34:27;;;;;;;;;;;17.40;99.90;;;17.77;66.93;101955.06;4842223;29;19935;-61
2022/06/04 07:36:55;;;;;;;;;;;17.50;99.90;;;17.74;66.57;101949.75;4842235;29;20011;-61
2022/06/04 07:39:24;;;;;;;;;;;17.50;99.90;;;17.87;66.37;101948.63;4842048;29;20004;-61
2022/06/04 07:41:53;;;;;;;;;;;17.60;99.90;;;17.96;66.11;101952.03;4842254;29;20276;-60
2022/06/04 07:44:24;;;;;;;;;;;17.70;99.90;;;18.03;66.17;101950.16;4841834;29;19963;-58
2022/06/04 07:46:56;;;;;;;;;;;17.80;99.90;;;17.98;65.75;101930.63;4842333;29;19924;-59
2022/06/04 07:49:24;;;;;;;;;;;17.80;99.90;;;18.03;65.47;101955.50;4842202;29;20340;-59
2022/06/04 07:51:54;;;;;;;;;;;17.80;99.90;;;18.14;65.40;101953.50;4841795;29;19946;-59
2022/06/04 07:54:23;;;;;;;;;;;17.90;99.90;;;18.15;65.44;101941.91;4842217;29;20082;-60
2022/06/04 07:56:54;;;;;;;;;;;17.90;99.90;;;18.16;65.28;101940.97;4842097;29;19930;-61
2022/06/04 07:59:23;;;;;;;;;;;17.90;99.90;;;18.30;64.74;101941.59;4841724;29;19936;-59
2022/06/04 08:01:51;;;;;;;;;;;18.00;99.90;;;18.23;64.55;101942.66;4826247;29;19925;-59
2022/06/04 08:04:20;;;;;;;;;;;18.00;99.90;;;18.25;64.61;101940.81;4843001;29;20356;-59
2022/06/04 08:06:50;;;;;;;;;;;18.00;99.90;;;18.12;64.00;101952.66;4843014;29;19952;-60
2022/06/04 08:09:18;;;;;;;;;;;18.00;99.90;;;18.09;64.58;101960.75;4842739;29;20022;-62
2022/06/04 08:11:47;;;;;;;;;;;17.90;99.90;;;17.94;65.03;101956.53;4843559;29;20011;-59
2022/06/04 08:14:17;;;;;;;;;;;17.70;99.90;;;17.41;65.53;101872.69;4842727;29;19998;-60
2022/06/04 08:16:47;;;;;;;;;;;17.70;99.90;;;17.91;65.67;101963.75;4842993;29;19971;-61
2022/06/04 08:19:15;;;;;;;;;;;17.70;99.90;;;17.85;65.26;101955.81;4843191;29;19924;-61
2022/06/04 08:21:45;;;;;;;;;;;17.70;99.90;;;17.88;66.05;101970.06;4842557;29;20027;-62
2022/06/04 08:24:15;;;;;;;;;;;17.60;99.90;;;17.96;65.77;101965.44;4842525;29;20011;-63
2022/06/04 08:26:45;;;;;;;;;;;17.70;99.90;;;18.03;65.71;101963.53;4842539;29;20344;-61
2022/06/04 08:29:14;;;;;;;;;;;17.70;99.90;;;18.00;65.86;101960.94;4842865;29;19924;-61
2022/06/04 08:31:42;;;;;;;;;;;17.80;99.90;;;18.20;65.96;101961.44;4842615;29;19925;-60
2022/06/04 08:34:10;;;;;;;;;;;17.90;99.90;;;18.20;65.82;101960.53;4842432;29;19963;-59
2022/06/04 08:36:38;;;;;;;;;;;18.00;99.90;;;18.28;65.21;101964.88;4842738;29;19924;-60
2022/06/04 08:39:08;;;;;;;;;;;18.10;99.90;;;18.47;65.05;101993.09;4842756;29;20348;-61
2022/06/04 08:41:43;;;;;;;;;;;18.20;99.90;;;18.57;64.89;101999.19;4842728;29;19924;-61
2022/06/04 08:44:14;;;;;;;;;;;18.30;99.90;;;18.45;64.75;101992.25;4842478;29;20386;-60
2022/06/04 08:46:45;;;;;;;;;;;18.20;99.90;;;18.56;65.02;101992.06;4842522;29;20394;-61
2022/06/04 08:49:21;;;;;;;;;;;18.30;99.90;;;18.55;64.64;101988.50;4842717;29;19973;-59
2022/06/04 08:51:50;;;;;;;;;;;18.30;99.90;;;18.57;64.69;101992.03;4842369;29;19975;-58
2022/06/04 08:59:58;;;;;;;;;;;18.40;99.90;;;18.57;64.41;101994.72;4846001;29;19976;-60
2022/06/04 09:02:40;;;;;;;;;;;18.30;99.90;;;18.51;64.20;102001.97;4845718;29;19925;-60
2022/06/04 09:05:17;;;;;;;;;;;18.30;99.90;;;18.44;64.17;101990.50;4845924;29;19971;-59
2022/06/04 09:07:49;;;;;;;;;;;18.20;99.90;;;18.29;64.68;102001.44;4846367;29;20344;-59
2022/06/04 09:10:21;;;;;;;;;;;18.10;99.90;;;18.38;65.08;102003.97;4845845;29;19924;-60
2022/06/04 09:12:52;;;;;;;;;;;18.10;99.90;;;18.47;65.05;101995.78;4844716;29;19929;-67
2022/06/04 09:15:24;;;;;;;;;;;18.20;99.90;;;18.55;64.96;101999.22;4845754;29;20366;-59
2022/06/04 09:17:54;;;;;;;;;;;18.30;99.90;;;18.55;65.27;102007.25;4845476;29;19932;-59
2022/06/04 09:20:29;;;;;;;;;;;18.30;99.90;;;18.62;65.27;102000.84;4845494;29;19924;-59
2022/06/04 09:23:01;;;;;;;;;;;18.40;99.90;;;18.63;65.22;101999.06;4846070;29;19973;-60
2022/06/04 09:25:38;;;;;;;;;;;18.40;99.90;;;18.51;64.66;102002.84;4844585;29;19928;-59
2022/06/04 09:28:16;;;;;;;;;;;18.30;99.90;;;18.54;65.30;102008.16;4845818;29;19924;-58
2022/06/04 09:30:52;;;;;;;;;;;18.30;99.90;;;18.67;65.26;102003.44;4845456;29;20018;-58
2022/06/04 09:33:44;;;;;;;;;;;18.40;99.90;;;18.79;65.34;102009.44;4845689;29;20455;-58
2022/06/04 09:36:13;;;;;;;;;;;18.50;99.90;;;18.87;65.16;102003.94;4845289;29;19963;-58
2022/06/04 09:38:52;;;;;;;;;;;18.60;99.90;;;18.91;64.70;102006.53;4845243;29;20379;-58
2022/06/04 09:41:23;;;;;;;;;;;18.60;99.90;;;18.73;64.36;102004.22;4845183;29;19982;-59
2022/06/04 09:44:04;;;;;;;;;;;18.60;99.90;;;18.74;64.65;101997.94;4844001;29;20030;-65
2022/06/04 09:46:32;;;;;;;;;;;18.50;99.90;;;18.84;64.93;101991.47;4845184;29;19924;-59
2022/06/04 09:49:13;;;;;;;;;;;18.60;99.90;;;18.65;64.79;101995.44;4845679;29;19929;-60
2022/06/04 09:51:43;;;;;;;;;;;18.50;99.90;;;18.51;65.28;101997.50;4845055;29;19966;-65
2022/06/04 09:54:22;;;;;;;;;;;18.30;99.90;;;18.55;65.30;101993.84;4845029;29;19981;-57
2022/06/04 09:56:54;;;;;;;;;;;18.30;99.90;;;18.61;65.46;101993.75;4843919;29;20454;-58
2022/06/04 09:59:25;;;;;;;;;;;18.40;99.90;;;18.66;65.94;101989.16;4844945;29;20028;-58
2022/06/04 10:01:59;;;;;;;;;;;18.40;99.90;;;18.61;66.09;101987.47;4844696;29;19968;-58
2022/06/04 10:04:40;;;;;;;;;;;18.30;99.90;;;18.62;66.14;101984.78;4844841;29;19964;-57
2022/06/04 10:07:10;;;;;;;;;;;18.30;99.90;;;18.79;66.67;101993.34;4845041;29;20015;-58
2022/06/04 10:09:56;;;;;;;;;;;18.50;99.90;;;18.76;66.45;101992.53;4844024;29;19989;-58
2022/06/04 10:15:24;;;;;;;;;;;18.60;99.90;;;18.76;65.82;102000.56;4844971;29;19947;-58
2022/06/04 10:18:15;;;;;;;;;;;18.60;99.90;;;18.80;65.93;101997.81;4844795;29;19928;-57
2022/06/04 10:20:52;;;;;;;;;;;18.60;99.90;;;18.77;65.91;101970.19;4844748;29;20357;-58
2022/06/04 10:23:20;;;;;;;;;;;18.70;99.90;;;18.98;66.45;102007.28;4844810;29;19928;-57
2022/06/04 10:25:59;;;;;;;;;;;18.70;99.90;;;19.10;66.38;102006.16;4844339;29;19929;-58
2022/06/04 10:28:46;;;;;;;;;;;18.80;99.90;;;19.18;66.25;102004.19;4844378;29;19924;-57
2022/06/04 10:31:21;;;;;;;;;;;18.90;99.90;;;19.20;66.34;101997.00;4844439;29;19968;-57
2022/06/04 10:33:53;;;;;;;;;;;19.00;99.90;;;19.29;66.44;101997.66;4844662;29;20442;-57
2022/06/04 10:36:35;;;;;;;;;;;19.00;99.90;;;19.29;66.67;102002.16;4844297;29;20014;-57
2022/06/04 10:39:11;;;;;;;;;;;19.00;99.90;;;19.39;67.30;101996.59;4844887;29;19924;-59
2022/06/04 10:41:45;;;;;;;;;;;19.10;99.90;;;19.34;67.25;101998.47;4844228;29;19924;-59
2022/06/04 10:44:36;;;;;;;;;;;19.10;99.90;;;19.30;67.13;102002.09;4844307;29;20019;-59
2022/06/04 10:47:12;;;;;;;;;;;19.10;99.90;;;19.30;67.22;102003.94;4844172;29;19924;-59
2022/06/04 10:49:55;;;;;;;;;;;19.10;99.90;;;19.30;67.01;102017.34;4844149;29;19928;-59
2022/06/04 10:52:26;;;;;;;;;;;19.10;99.90;;;19.34;66.97;102001.16;4844099;29;19931;-59
2022/06/04 10:55:04;;;;;;;;;;;19.10;99.90;;;19.41;66.99;102009.97;4844099;29;19967;-59
2022/06/04 10:57:37;;;;;;;;;;;19.20;99.90;;;19.38;66.50;102004.66;4844183;29;19964;-60
2022/06/04 11:00:12;;;;;;;;;;;19.20;99.90;;;18.94;66.17;101922.44;4843948;29;19963;-61
2022/06/04 11:02:44;;;;;;;;;;;19.20;99.90;;;19.43;65.82;102005.44;4844075;29;19980;-60
2022/06/04 11:05:17;;;;;;;;;;;19.20;99.90;;;19.49;66.28;102014.22;4843986;29;19956;-60
2022/06/04 11:07:53;;;;;;;;;;;19.20;99.90;;;19.57;66.12;102006.00;4844046;29;20355;-60
2022/06/04 11:10:24;;;;;;;;;;;19.30;99.90;;;19.61;65.75;102005.00;4844018;29;19928;-60
2022/06/04 11:13:04;;;;;;;;;;;19.40;99.90;;;19.64;65.35;102002.25;4843664;29;19932;-60
2022/06/04 11:15:36;;;;;;;;;;;19.40;99.90;;;19.66;65.26;101998.63;4844200;29;20007;-60
2022/06/04 11:18:12;;;;;;;;;;;19.40;99.90;;;19.78;65.06;102009.06;4843836;29;19928;-60
2022/06/04 11:20:44;;;;;;;;;;;19.50;99.90;;;19.73;64.30;102008.31;4843423;29;20347;-60
2022/06/04 11:23:29;;;;;;;;;;;19.50;99.90;;;19.70;63.51;102002.97;4842479;29;20581;-58
2022/06/04 11:25:59;;;;;;;;;;;19.50;99.90;;;19.86;63.99;102013.38;4843636;29;19924;-58
2022/06/04 11:28:28;;;;;;;;;;;19.60;99.90;;;19.86;63.47;102019.63;4843359;29;20031;-59
2022/06/04 11:31:07;;;;;;;;;;;19.70;99.90;;;19.98;63.33;102022.00;4843257;29;19924;-58
2022/06/04 11:33:44;;;;;;;;;;;19.70;99.90;;;20.06;62.91;102019.13;4843238;29;20304;-58
2022/06/04 11:36:22;;;;;;;;;;;19.80;99.90;;;20.05;63.14;102023.66;4843544;29;19924;-58
2022/06/04 11:39:03;;;;;;;;;;;19.90;99.90;;;20.00;62.40;102013.91;4843082;29;20019;-58
2022/06/04 11:41:34;;;;;;;;;;;19.90;99.90;;;19.87;62.93;102025.88;4843235;29;20015;-58
2022/06/04 11:44:36;;;;;;;;;;;19.60;99.90;;;19.99;63.29;102013.03;4843304;29;19973;-58
2022/06/04 11:47:16;;;;;;;;;;;19.70;99.90;;;20.17;63.17;102006.31;4843108;29;19946;-58